Trotters, North Dakota
Current Conditions -  °F | °C
As of 11:35 AM on Sunday 23 Nov 2014 (Local Time) from K20U Reporting Station
Light Rain Light Rain  
Wind Chill:   Ceiling: 4100
Heat Index: 25°   Visibility: 10mi
Dew Point: 19°   Wind: 30mph
Humidity: 80%   Direction: 310°NW
Pressure: 29.72"   Gusts: 40mph
Location:  47.0809°N, 103.878°W
Report Text: K20U 231835Z AUTO 31026G35KT 10SM -RA FEW029 SCT033 BKN041 M04/M07 A2972 RMK AO2 P0002
Loading
Personal Weather Stations






























Interactive Weather Map New forecast layout! Learn more

10-Day Weather Forecast

Advertisements
Track Severe Weather on mobile